sensor_id;sensor_type;location;lat;lon;timestamp;pressure;altitude;pressure_sealevel;temperature;humidity
24486;BME280;13449;49.374;8.584;2022-11-04T00:02:11;99548.09;;;10.67;100.00
24486;BME280;13449;49.374;8.584;2022-11-04T00:04:38;99534.88;;;10.64;100.00
24486;BME280;13449;49.374;8.584;2022-11-04T00:07:04;99538.84;;;10.61;100.00
24486;BME280;13449;49.374;8.584;2022-11-04T00:09:50;99527.53;;;10.58;100.00
24486;BME280;13449;49.374;8.584;2022-11-04T00:12:17;99524.19;;;10.56;100.00
24486;BME280;13449;49.374;8.584;2022-11-04T00:14:53;99522.06;;;10.51;100.00
24486;BME280;13449;49.374;8.584;2022-11-04T00:17:19;99516.63;;;10.51;100.00
24486;BME280;13449;49.374;8.584;2022-11-04T00:19:52;99515.59;;;10.46;100.00
24486;BME280;13449;49.374;8.584;2022-11-04T00:22:40;99514.50;;;10.47;100.00
24486;BME280;13449;49.374;8.584;2022-11-04T00:25:25;99523.97;;;10.44;100.00
24486;BME280;13449;49.374;8.584;2022-11-04T00:28:16;99538.19;;;10.40;100.00
24486;BME280;13449;49.374;8.584;2022-11-04T00:31:04;99539.25;;;10.39;100.00
24486;BME280;13449;49.374;8.584;2022-11-04T00:33:51;99542.38;;;10.42;100.00
24486;BME280;13449;49.374;8.584;2022-11-04T00:36:18;99550.19;;;10.45;100.00
24486;BME280;13449;49.374;8.584;2022-11-04T00:38:44;99554.34;;;10.48;100.00
24486;BME280;13449;49.374;8.584;2022-11-04T00:41:11;99556.47;;;10.46;100.00
24486;BME280;13449;49.374;8.584;2022-11-04T00:44:03;99542.84;;;10.46;100.00
24486;BME280;13449;49.374;8.584;2022-11-04T00:46:31;99563.16;;;10.43;100.00
24486;BME280;13449;49.374;8.584;2022-11-04T00:49:01;99589.13;;;10.39;100.00
24486;BME280;13449;49.374;8.584;2022-11-04T00:51:28;99587.66;;;10.37;100.00
24486;BME280;13449;49.374;8.584;2022-11-04T00:53:54;99597.97;;;10.35;100.00
24486;BME280;13449;49.374;8.584;2022-11-04T00:56:23;99590.81;;;10.34;100.00
24486;BME280;13449;49.374;8.584;2022-11-04T00:58:49;99592.09;;;10.38;100.00
24486;BME280;13449;49.374;8.584;2022-11-04T01:01:17;99593.75;;;10.39;100.00
24486;BME280;13449;49.374;8.584;2022-11-04T01:03:45;99588.09;;;10.40;100.00
24486;BME280;13449;49.374;8.584;2022-11-04T01:06:12;99566.91;;;10.42;100.00
24486;BME280;13449;49.374;8.584;2022-11-04T01:08:39;99584.34;;;10.41;100.00
24486;BME280;13449;49.374;8.584;2022-11-04T01:11:07;99588.09;;;10.40;100.00
24486;BME280;13449;49.374;8.584;2022-11-04T01:13:34;99584.94;;;10.43;100.00
24486;BME280;13449;49.374;8.584;2022-11-04T01:16:06;99576.16;;;10.41;100.00
24486;BME280;13449;49.374;8.584;2022-11-04T01:18:33;99572.78;;;10.39;100.00
24486;BME280;13449;49.374;8.584;2022-11-04T01:21:01;99585.78;;;10.37;100.00
24486;BME280;13449;49.374;8.584;2022-11-04T01:23:28;99585.78;;;10.37;100.00
24486;BME280;13449;49.374;8.584;2022-11-04T01:25:55;99599.59;;;10.36;100.00
24486;BME280;13449;49.374;8.584;2022-11-04T01:28:24;99588.72;;;10.36;100.00
24486;BME280;13449;49.374;8.584;2022-11-04T01:30:54;99593.75;;;10.39;100.00
24486;BME280;13449;49.374;8.584;2022-11-04T01:33:20;99586.41;;;10.39;100.00
24486;BME280;13449;49.374;8.584;2022-11-04T01:35:46;99587.47;;;10.38;100.00
24486;BME280;13449;49.374;8.584;2022-11-04T01:38:16;99585.78;;;10.37;100.00
24486;BME280;13449;49.374;8.584;2022-11-04T01:40:42;99582.84;;;10.39;100.00
24486;BME280;13449;49.374;8.584;2022-11-04T01:43:14;99562.31;;;10.36;100.00
24486;BME280;13449;49.374;8.584;2022-11-04T01:45:46;99568.59;;;10.37;100.00
24486;BME280;13449;49.374;8.584;2022-11-04T01:48:18;99579.31;;;10.38;100.00
24486;BME280;13449;49.374;8.584;2022-11-04T01:50:48;99581.19;;;10.38;100.00
24486;BME280;13449;49.374;8.584;2022-11-04T01:53:38;99583.69;;;10.39;100.00
24486;BME280;13449;49.374;8.584;2022-11-04T01:56:07;99575.50;;;10.39;100.00
24486;BME280;13449;49.374;8.584;2022-11-04T01:58:48;99579.69;;;10.35;100.00
24486;BME280;13449;49.374;8.584;2022-11-04T02:01:20;99587.03;;;10.28;100.00
24486;BME280;13449;49.374;8.584;2022-11-04T02:04:02;99584.91;;;10.24;100.00
24486;BME280;13449;49.374;8.584;2022-11-04T02:06:48;99583.66;;;10.20;100.00
24486;BME280;13449;49.374;8.584;2022-11-04T02:09:17;99593.31;;;10.22;100.00
24486;BME280;13449;49.374;8.584;2022-11-04T02:11:45;99599.16;;;10.19;100.00
24486;BME280;13449;49.374;8.584;2022-11-04T02:14:31;99597.91;;;10.15;100.00
24486;BME280;13449;49.374;8.584;2022-11-04T02:17:06;99592.59;;;10.13;100.00
24486;BME280;13449;49.374;8.584;2022-11-04T02:22:53;99593.22;;;10.09;100.00
24486;BME280;13449;49.374;8.584;2022-11-04T02:31:13;99592.59;;;10.07;100.00
24486;BME280;13449;49.374;8.584;2022-11-04T02:45:36;99600.34;;;10.03;100.00
24486;BME280;13449;49.374;8.584;2022-11-04T02:48:25;99603.06;;;10.03;100.00
24486;BME280;13449;49.374;8.584;2022-11-04T02:51:10;99599.06;;;9.99;100.00
24486;BME280;13449;49.374;8.584;2022-11-04T02:53:51;99597.97;;;9.94;100.00
24486;BME280;13449;49.374;8.584;2022-11-04T02:56:22;99614.53;;;9.86;100.00
24486;BME280;13449;49.374;8.584;2022-11-04T02:58:55;99632.69;;;9.79;100.00
24486;BME280;13449;49.374;8.584;2022-11-04T03:01:25;99628.72;;;9.75;100.00
24486;BME280;13449;49.374;8.584;2022-11-04T03:04:00;99610.66;;;9.67;100.00
24486;BME280;13449;49.374;8.584;2022-11-04T03:06:30;99612.72;;;9.65;100.00
24486;BME280;13449;49.374;8.584;2022-11-04T03:09:01;99626.75;;;9.62;100.00
24486;BME280;13449;49.374;8.584;2022-11-04T03:11:29;99621.91;;;9.57;100.00
24486;BME280;13449;49.374;8.584;2022-11-04T03:13:57;99617.88;;;9.53;100.00
24486;BME280;13449;49.374;8.584;2022-11-04T03:16:32;99642.78;;;9.50;100.00
24486;BME280;13449;49.374;8.584;2022-11-04T03:19:22;99643.81;;;9.49;100.00
24486;BME280;13449;49.374;8.584;2022-11-04T03:21:59;99638.16;;;9.44;100.00
24486;BME280;13449;49.374;8.584;2022-11-04T03:24:30;99632.91;;;9.43;100.00
24486;BME280;13449;49.374;8.584;2022-11-04T03:27:03;99648.59;;;9.41;100.00
24486;BME280;13449;49.374;8.584;2022-11-04T03:29:37;99651.69;;;9.38;100.00
24486;BME280;13449;49.374;8.584;2022-11-04T03:35:13;99660.25;;;9.35;100.00
24486;BME280;13449;49.374;8.584;2022-11-04T03:37:44;99643.31;;;9.33;100.00
24486;BME280;13449;49.374;8.584;2022-11-04T03:40:12;99650.19;;;9.29;100.00
24486;BME280;13449;49.374;8.584;2022-11-04T03:42:45;99660.63;;;9.25;100.00
24486;BME280;13449;49.374;8.584;2022-11-04T03:45:15;99660.34;;;9.20;100.00
24486;BME280;13449;49.374;8.584;2022-11-04T03:47:44;99654.66;;;9.15;100.00
24486;BME280;13449;49.374;8.584;2022-11-04T03:50:24;99647.31;;;9.09;100.00
24486;BME280;13449;49.374;8.584;2022-11-04T03:52:52;99650.41;;;9.06;100.00
24486;BME280;13449;49.374;8.584;2022-11-04T03:55:21;99646.22;;;9.03;100.00
24486;BME280;13449;49.374;8.584;2022-11-04T03:57:57;99645.13;;;8.98;100.00
24486;BME280;13449;49.374;8.584;2022-11-04T04:00:33;99649.47;;;8.92;100.00
24486;BME280;13449;49.374;8.584;2022-11-04T04:05:48;99650.47;;;8.85;100.00
24486;BME280;13449;49.374;8.584;2022-11-04T04:08:38;99653.94;;;8.79;100.00
24486;BME280;13449;49.374;8.584;2022-11-04T04:13:56;99663.50;;;8.74;100.00
24486;BME280;13449;49.374;8.584;2022-11-04T04:16:30;99675.16;;;8.68;100.00
24486;BME280;13449;49.374;8.584;2022-11-04T04:19:02;99674.16;;;8.69;100.00
24486;BME280;13449;49.374;8.584;2022-11-04T04:21:38;99663.84;;;8.65;100.00
24486;BME280;13449;49.374;8.584;2022-11-04T04:24:07;99652.13;;;8.64;100.00
24486;BME280;13449;49.374;8.584;2022-11-04T04:26:53;99639.34;;;8.58;100.00
24486;BME280;13449;49.374;8.584;2022-11-04T04:29:39;99634.28;;;8.55;100.00
24486;BME280;13449;49.374;8.584;2022-11-04T04:32:08;99636.75;;;8.50;100.00
24486;BME280;13449;49.374;8.584;2022-11-04T04:34:37;99650.06;;;8.45;100.00
24486;BME280;13449;49.374;8.584;2022-11-04T04:37:10;99649.41;;;8.43;100.00
24486;BME280;13449;49.374;8.584;2022-11-04T04:39:44;99639.97;;;8.39;100.00
24486;BME280;13449;49.374;8.584;2022-11-04T04:42:34;99652.25;;;8.35;100.00
24486;BME280;13449;49.374;8.584;2022-11-04T04:45:28;99640.09;;;8.31;100.00
24486;BME280;13449;49.374;8.584;2022-11-04T04:47:59;99637.72;;;8.28;100.00
24486;BME280;13449;49.374;8.584;2022-11-04T04:50:28;99635.19;;;8.26;100.00
24486;BME280;13449;49.374;8.584;2022-11-04T04:52:57;99626.59;;;8.23;100.00
24486;BME280;13449;49.374;8.584;2022-11-04T04:55:25;99638.31;;;8.23;100.00
24486;BME280;13449;49.374;8.584;2022-11-04T04:57:55;99630.53;;;8.20;100.00
24486;BME280;13449;49.374;8.584;2022-11-04T05:00:21;99626.13;;;8.19;100.00
24486;BME280;13449;49.374;8.584;2022-11-04T05:02:51;99629.69;;;8.20;100.00
24486;BME280;13449;49.374;8.584;2022-11-04T05:05:17;99621.56;;;8.20;100.00
24486;BME280;13449;49.374;8.584;2022-11-04T05:07:46;99623.59;;;8.18;100.00
24486;BME280;13449;49.374;8.584;2022-11-04T05:10:16;99618.56;;;8.15;100.00
24486;BME280;13449;49.374;8.584;2022-11-04T05:12:43;99614.16;;;8.14;100.00
24486;BME280;13449;49.374;8.584;2022-11-04T05:15:29;99609.78;;;8.13;100.00
24486;BME280;13449;49.374;8.584;2022-11-04T05:18:00;99605.94;;;8.07;100.00
24486;BME280;13449;49.374;8.584;2022-11-04T05:20:27;99607.41;;;8.10;100.00
24486;BME280;13449;49.374;8.584;2022-11-04T05:22:55;99606.41;;;8.11;100.00
24486;BME280;13449;49.374;8.584;2022-11-04T05:25:21;99613.34;;;8.13;100.00
24486;BME280;13449;49.374;8.584;2022-11-04T05:27:48;99615.22;;;8.13;100.00
24486;BME280;13449;49.374;8.584;2022-11-04T05:30:14;99617.47;;;8.09;100.00
24486;BME280;13449;49.374;8.584;2022-11-04T05:32:43;99615.72;;;8.23;100.00
24486;BME280;13449;49.374;8.584;2022-11-04T05:35:09;99608.47;;;8.45;100.00
24486;BME280;13449;49.374;8.584;2022-11-04T05:37:36;99609.44;;;8.37;100.00
24486;BME280;13449;49.374;8.584;2022-11-04T05:40:03;99602.78;;;8.40;100.00
24486;BME280;13449;49.374;8.584;2022-11-04T05:42:29;99607.88;;;8.49;100.00
24486;BME280;13449;49.374;8.584;2022-11-04T05:44:56;99600.31;;;8.45;100.00
24486;BME280;13449;49.374;8.584;2022-11-04T05:47:25;99610.78;;;8.48;100.00
24486;BME280;13449;49.374;8.584;2022-11-04T05:49:53;99607.69;;;8.51;100.00
24486;BME280;13449;49.374;8.584;2022-11-04T05:52:20;99602.28;;;8.51;100.00
24486;BME280;13449;49.374;8.584;2022-11-04T05:54:46;99608.53;;;8.51;100.00
24486;BME280;13449;49.374;8.584;2022-11-04T05:57:13;99607.75;;;8.57;100.00
24486;BME280;13449;49.374;8.584;2022-11-04T05:59:39;99610.47;;;8.57;100.00
24486;BME280;13449;49.374;8.584;2022-11-04T06:02:06;99619.84;;;8.55;100.00
24486;BME280;13449;49.374;8.584;2022-11-04T06:04:33;99623.41;;;8.55;100.00
24486;BME280;13449;49.374;8.584;2022-11-04T06:07:01;99615.25;;;8.55;100.00
24486;BME280;13449;49.374;8.584;2022-11-04T06:09:30;99610.47;;;8.57;100.00
24486;BME280;13449;49.374;8.584;2022-11-04T06:12:10;99630.34;;;8.58;100.00
24486;BME280;13449;49.374;8.584;2022-11-04T06:14:37;99628.31;;;8.66;100.00
24486;BME280;13449;49.374;8.584;2022-11-04T06:17:04;99640.28;;;8.72;100.00
24486;BME280;13449;49.374;8.584;2022-11-04T06:19:30;99648.09;;;8.82;100.00
24486;BME280;13449;49.374;8.584;2022-11-04T06:21:58;99645.50;;;8.73;100.00
24486;BME280;13449;49.374;8.584;2022-11-04T06:24:25;99647.94;;;8.62;100.00
24486;BME280;13449;49.374;8.584;2022-11-04T06:26:51;99647.22;;;8.53;100.00
24486;BME280;13449;49.374;8.584;2022-11-04T06:29:17;99642.94;;;8.44;100.00
24486;BME280;13449;49.374;8.584;2022-11-04T06:31:44;99642.03;;;8.37;100.00
24486;BME280;13449;49.374;8.584;2022-11-04T06:34:10;99638.00;;;8.33;100.00
24486;BME280;13449;49.374;8.584;2022-11-04T06:36:37;99628.91;;;8.26;100.00
24486;BME280;13449;49.374;8.584;2022-11-04T06:39:08;99632.47;;;8.26;100.00
24486;BME280;13449;49.374;8.584;2022-11-04T06:41:34;99634.66;;;8.31;100.00
24486;BME280;13449;49.374;8.584;2022-11-04T06:44:01;99640.94;;;8.32;100.00
24486;BME280;13449;49.374;8.584;2022-11-04T06:46:34;99647.94;;;8.26;100.00
24486;BME280;13449;49.374;8.584;2022-11-04T06:49:02;99644.84;;;8.29;100.00
24486;BME280;13449;49.374;8.584;2022-11-04T06:51:29;99644.56;;;8.24;100.00
24486;BME280;13449;49.374;8.584;2022-11-04T06:53:58;99641.34;;;8.50;100.00
24486;BME280;13449;49.374;8.584;2022-11-04T06:56:24;99639.50;;;8.36;100.00
24486;BME280;13449;49.374;8.584;2022-11-04T06:58:52;99641.78;;;8.32;100.00
24486;BME280;13449;49.374;8.584;2022-11-04T07:01:21;99643.84;;;8.30;100.00
24486;BME280;13449;49.374;8.584;2022-11-04T07:03:53;99642.31;;;8.27;100.00
24486;BME280;13449;49.374;8.584;2022-11-04T07:06:21;99648.88;;;8.33;100.00
24486;BME280;13449;49.374;8.584;2022-11-04T07:08:48;99644.84;;;8.29;100.00
24486;BME280;13449;49.374;8.584;2022-11-04T07:11:17;99655.53;;;8.31;100.00
24486;BME280;13449;49.374;8.584;2022-11-04T07:13:44;99658.72;;;8.34;100.00
24486;BME280;13449;49.374;8.584;2022-11-04T07:16:13;99661.75;;;8.67;100.00
24486;BME280;13449;49.374;8.584;2022-11-04T07:18:40;99665.56;;;8.51;100.00
24486;BME280;13449;49.374;8.584;2022-11-04T07:21:10;99656.34;;;8.46;100.00
24486;BME280;13449;49.374;8.584;2022-11-04T07:23:37;99669.69;;;8.47;100.00
24486;BME280;13449;49.374;8.584;2022-11-04T07:26:06;99676.25;;;8.53;100.00
24486;BME280;13449;49.374;8.584;2022-11-04T07:28:33;99669.53;;;8.49;100.00
24486;BME280;13449;49.374;8.584;2022-11-04T07:31:01;99671.41;;;8.48;100.00
24486;BME280;13449;49.374;8.584;2022-11-04T07:33:28;99675.22;;;8.54;100.00
24486;BME280;13449;49.374;8.584;2022-11-04T07:35:55;99675.88;;;8.56;100.00
24486;BME280;13449;49.374;8.584;2022-11-04T07:38:23;99678.91;;;8.67;100.00
24486;BME280;13449;49.374;8.584;2022-11-04T07:40:50;99676.66;;;8.71;100.00
24486;BME280;13449;49.374;8.584;2022-11-04T07:43:16;99674.38;;;8.74;100.00
24486;BME280;13449;49.374;8.584;2022-11-04T07:45:43;99678.44;;;8.85;100.00
24486;BME280;13449;49.374;8.584;2022-11-04T07:48:09;99674.06;;;9.05;100.00
24486;BME280;13449;49.374;8.584;2022-11-04T07:50:38;99665.88;;;9.05;100.00
24486;BME280;13449;49.374;8.584;2022-11-04T07:53:05;99656.50;;;9.08;100.00
24486;BME280;13449;49.374;8.584;2022-11-04T07:55:32;99657.59;;;9.13;100.00
24486;BME280;13449;49.374;8.584;2022-11-04T07:58:04;99647.59;;;9.20;100.00
24486;BME280;13449;49.374;8.584;2022-11-04T08:00:30;99650.63;;;9.32;100.00
24486;BME280;13449;49.374;8.584;2022-11-04T08:02:57;99642.31;;;9.40;100.00
24486;BME280;13449;49.374;8.584;2022-11-04T08:05:25;99641.25;;;9.41;100.00
24486;BME280;13449;49.374;8.584;2022-11-04T08:07:54;99645.09;;;9.53;100.00
24486;BME280;13449;49.374;8.584;2022-11-04T08:10:23;99646.19;;;9.59;100.00
24486;BME280;13449;49.374;8.584;2022-11-04T08:12:50;99648.25;;;9.57;100.00
24486;BME280;13449;49.374;8.584;2022-11-04T08:15:17;99645.78;;;9.62;100.00
24486;BME280;13449;49.374;8.584;2022-11-04T08:17:43;99642.25;;;9.68;100.00
24486;BME280;13449;49.374;8.584;2022-11-04T08:20:12;99645.81;;;9.68;100.00
24486;BME280;13449;49.374;8.584;2022-11-04T08:22:39;99630.78;;;9.79;100.00
24486;BME280;13449;49.374;8.584;2022-11-04T08:25:06;99644.69;;;9.91;100.00
24486;BME280;13449;49.374;8.584;2022-11-04T08:27:33;99639.66;;;9.94;100.00
24486;BME280;13449;49.374;8.584;2022-11-04T08:29:59;99640.16;;;10.04;100.00
24486;BME280;13449;49.374;8.584;2022-11-04T08:32:28;99630.31;;;10.10;100.00
24486;BME280;13449;49.374;8.584;2022-11-04T08:34:55;99627.84;;;10.15;100.00
24486;BME280;13449;49.374;8.584;2022-11-04T08:37:21;99614.25;;;10.28;100.00
24486;BME280;13449;49.374;8.584;2022-11-04T08:39:50;99626.25;;;10.34;100.00
24486;BME280;13449;49.374;8.584;2022-11-04T08:42:18;99622.50;;;10.41;100.00
24486;BME280;13449;49.374;8.584;2022-11-04T08:44:49;99622.28;;;10.49;100.00
24486;BME280;13449;49.374;8.584;2022-11-04T08:47:16;99623.34;;;10.55;100.00
24486;BME280;13449;49.374;8.584;2022-11-04T08:49:43;99625.03;;;10.56;100.00
24486;BME280;13449;49.374;8.584;2022-11-04T08:52:09;99633.63;;;10.66;100.00
24486;BME280;13449;49.374;8.584;2022-11-04T08:54:36;99643.72;;;10.72;100.00
24486;BME280;13449;49.374;8.584;2022-11-04T08:57:02;99634.72;;;10.78;100.00
24486;BME280;13449;49.374;8.584;2022-11-04T08:59:29;99631.56;;;10.88;100.00
24486;BME280;13449;49.374;8.584;2022-11-04T09:01:55;99629.28;;;10.98;100.00
24486;BME280;13449;49.374;8.584;2022-11-04T09:04:24;99647.94;;;10.94;100.00
24486;BME280;13449;49.374;8.584;2022-11-04T09:06:51;99642.06;;;10.97;100.00
24486;BME280;13449;49.374;8.584;2022-11-04T09:09:18;99639.75;;;11.07;100.00
24486;BME280;13449;49.374;8.584;2022-11-04T09:11:45;99638.91;;;11.07;100.00
24486;BME280;13449;49.374;8.584;2022-11-04T09:14:12;99643.72;;;11.18;100.00
24486;BME280;13449;49.374;8.584;2022-11-04T09:16:40;99647.72;;;11.15;100.00
24486;BME280;13449;49.374;8.584;2022-11-04T09:19:07;99647.94;;;11.14;100.00
24486;BME280;13449;49.374;8.584;2022-11-04T09:21:34;99645.19;;;11.14;100.00
24486;BME280;13449;49.374;8.584;2022-11-04T09:24:03;99649.19;;;11.18;100.00
24486;BME280;13449;49.374;8.584;2022-11-04T09:26:30;99653.41;;;11.27;100.00
24486;BME280;13449;49.374;8.584;2022-11-04T09:28:57;99651.28;;;11.36;100.00
24486;BME280;13449;49.374;8.584;2022-11-04T09:31:26;99656.09;;;11.40;100.00
24486;BME280;13449;49.374;8.584;2022-11-04T09:33:54;99646.22;;;11.46;100.00
24486;BME280;13449;49.374;8.584;2022-11-04T09:36:21;99648.94;;;11.52;100.00
24486;BME280;13449;49.374;8.584;2022-11-04T09:38:47;99661.75;;;11.65;100.00
24486;BME280;13449;49.374;8.584;2022-11-04T09:46:36;99678.75;;;11.87;100.00
24486;BME280;13449;49.374;8.584;2022-11-04T09:49:07;99680.22;;;11.83;99.47
24486;BME280;13449;49.374;8.584;2022-11-04T09:51:38;99688.19;;;11.78;99.40
24486;BME280;13449;49.374;8.584;2022-11-04T09:54:23;99694.91;;;11.82;100.00
24486;BME280;13449;49.374;8.584;2022-11-04T09:56:51;99697.25;;;11.78;98.80
24486;BME280;13449;49.374;8.584;2022-11-04T09:59:24;99696.81;;;11.68;98.69
24486;BME280;13449;49.374;8.584;2022-11-04T10:05:03;99699.56;;;11.61;98.92
24486;BME280;13449;49.374;8.584;2022-11-04T10:08:01;99690.72;;;11.59;99.30
24486;BME280;13449;49.374;8.584;2022-11-04T10:10:41;99692.41;;;11.67;99.12
24486;BME280;13449;49.374;8.584;2022-11-04T10:13:29;99691.59;;;11.73;99.59
24486;BME280;13449;49.374;8.584;2022-11-04T10:22:02;99686.72;;;11.82;95.42
24486;BME280;13449;49.374;8.584;2022-11-04T10:24:41;99678.75;;;11.80;96.52
24486;BME280;13449;49.374;8.584;2022-11-04T10:30:00;99677.69;;;11.81;99.11
24486;BME280;13449;49.374;8.584;2022-11-04T10:32:32;99668.91;;;11.73;96.19
24486;BME280;13449;49.374;8.584;2022-11-04T10:37:33;99672.25;;;11.75;97.96
24486;BME280;13449;49.374;8.584;2022-11-04T10:49:40;99671.38;;;11.87;97.14
24486;BME280;13449;49.374;8.584;2022-11-04T10:52:05;99661.72;;;11.91;98.49
24486;BME280;13449;49.374;8.584;2022-11-04T10:54:43;99669.91;;;11.91;97.36
24486;BME280;13449;49.374;8.584;2022-11-04T10:57:13;99665.91;;;11.94;99.38
24486;BME280;13449;49.374;8.584;2022-11-04T11:02:14;99662.28;;;12.00;94.62
24486;BME280;13449;49.374;8.584;2022-11-04T11:04:44;99662.13;;;11.95;91.73
24486;BME280;13449;49.374;8.584;2022-11-04T11:07:14;99653.69;;;12.03;92.92
24486;BME280;13449;49.374;8.584;2022-11-04T11:09:51;99648.78;;;12.18;96.52
24486;BME280;13449;49.374;8.584;2022-11-04T11:12:24;99650.81;;;12.36;96.36
24486;BME280;13449;49.374;8.584;2022-11-04T11:15:28;99646.78;;;12.38;95.13
24486;BME280;13449;49.374;8.584;2022-11-04T11:18:05;99651.41;;;12.38;95.98
24486;BME280;13449;49.374;8.584;2022-11-04T11:20:37;99653.25;;;12.50;95.33
24486;BME280;13449;49.374;8.584;2022-11-04T11:23:33;99654.31;;;12.49;93.39
24486;BME280;13449;49.374;8.584;2022-11-04T11:26:02;99662.69;;;12.54;92.62
24486;BME280;13449;49.374;8.584;2022-11-04T11:28:31;99665.56;;;12.66;91.72
24486;BME280;13449;49.374;8.584;2022-11-04T11:31:10;99661.34;;;12.70;93.39
24486;BME280;13449;49.374;8.584;2022-11-04T11:34:02;99664.34;;;12.62;88.91
24486;BME280;13449;49.374;8.584;2022-11-04T11:36:32;99657.81;;;12.63;91.54
24486;BME280;13449;49.374;8.584;2022-11-04T11:39:03;99661.66;;;12.55;90.49
24486;BME280;13449;49.374;8.584;2022-11-04T11:41:35;99649.03;;;12.54;91.04
24486;BME280;13449;49.374;8.584;2022-11-04T11:47:03;99653.06;;;12.45;90.58
24486;BME280;13449;49.374;8.584;2022-11-04T11:49:32;99653.50;;;12.42;89.83
24486;BME280;13449;49.374;8.584;2022-11-04T11:54:45;99646.63;;;12.33;93.80
24486;BME280;13449;49.374;8.584;2022-11-04T11:57:34;99648.34;;;12.21;96.92
24486;BME280;13449;49.374;8.584;2022-11-04T12:00:13;99639.56;;;12.13;100.00
24486;BME280;13449;49.374;8.584;2022-11-04T12:06:06;99637.31;;;11.96;100.00
24486;BME280;13449;49.374;8.584;2022-11-04T12:12:29;99621.50;;;12.05;100.00
24486;BME280;13449;49.374;8.584;2022-11-04T12:17:56;99615.31;;;12.23;100.00
24486;BME280;13449;49.374;8.584;2022-11-04T12:20:51;99618.25;;;12.28;100.00
24486;BME280;13449;49.374;8.584;2022-11-04T12:23:30;99611.63;;;12.04;100.00
24486;BME280;13449;49.374;8.584;2022-11-04T12:26:12;99606.97;;;12.11;100.00
24486;BME280;13449;49.374;8.584;2022-11-04T12:42:49;99620.91;;;12.03;100.00
24486;BME280;13449;49.374;8.584;2022-11-04T12:45:48;99624.25;;;12.05;96.75
24486;BME280;13449;49.374;8.584;2022-11-04T12:48:33;99621.06;;;12.08;94.71
24486;BME280;13449;49.374;8.584;2022-11-04T12:56:39;99629.16;;;12.34;93.15
24486;BME280;13449;49.374;8.584;2022-11-04T12:59:46;99636.41;;;12.53;94.60
24486;BME280;13449;49.374;8.584;2022-11-04T13:02:19;99641.56;;;12.68;91.99
24486;BME280;13449;49.374;8.584;2022-11-04T13:07:45;99655.03;;;12.70;87.73
24486;BME280;13449;49.374;8.584;2022-11-04T13:13:07;99647.63;;;12.77;93.82
24486;BME280;13449;49.374;8.584;2022-11-04T13:15:45;99647.16;;;12.80;93.04
24486;BME280;13449;49.374;8.584;2022-11-04T13:18:17;99654.78;;;12.71;89.38
24486;BME280;13449;49.374;8.584;2022-11-04T13:20:58;99662.28;;;12.89;91.24
24486;BME280;13449;49.374;8.584;2022-11-04T13:23:45;99657.41;;;12.91;92.27
24486;BME280;13449;49.374;8.584;2022-11-04T13:26:18;99673.94;;;12.78;85.29
24486;BME280;13449;49.374;8.584;2022-11-04T13:28:48;99659.03;;;12.98;93.12
24486;BME280;13449;49.374;8.584;2022-11-04T13:37:35;99679.47;;;12.96;86.55
24486;BME280;13449;49.374;8.584;2022-11-04T13:40:14;99675.84;;;13.02;87.96
24486;BME280;13449;49.374;8.584;2022-11-04T13:45:16;99674.72;;;13.16;87.20
24486;BME280;13449;49.374;8.584;2022-11-04T13:47:49;99679.59;;;13.14;87.54
24486;BME280;13449;49.374;8.584;2022-11-04T13:50:35;99677.03;;;13.19;86.23
24486;BME280;13449;49.374;8.584;2022-11-04T13:53:07;99675.34;;;13.18;86.25
24486;BME280;13449;49.374;8.584;2022-11-04T13:55:48;99691.97;;;13.17;86.32
24486;BME280;13449;49.374;8.584;2022-11-04T13:58:24;99696.25;;;13.06;84.87
24486;BME280;13449;49.374;8.584;2022-11-04T14:01:13;99688.13;;;12.93;86.33
24486;BME280;13449;49.374;8.584;2022-11-04T14:04:02;99695.81;;;12.78;84.31
24486;BME280;13449;49.374;8.584;2022-11-04T14:06:53;99685.72;;;12.78;89.11
24486;BME280;13449;49.374;8.584;2022-11-04T14:14:34;99692.13;;;12.52;86.69
24486;BME280;13449;49.374;8.584;2022-11-04T14:17:00;99697.59;;;12.52;87.23
24486;BME280;13449;49.374;8.584;2022-11-04T14:19:46;99687.31;;;12.54;89.37
24486;BME280;13449;49.374;8.584;2022-11-04T14:22:15;99694.88;;;12.52;86.11
24486;BME280;13449;49.374;8.584;2022-11-04T14:24:43;99694.47;;;12.55;88.06
24486;BME280;13449;49.374;8.584;2022-11-04T14:27:52;99699.03;;;12.62;89.07
24486;BME280;13449;49.374;8.584;2022-11-04T14:33:07;99699.66;;;12.64;92.39
24486;BME280;13449;49.374;8.584;2022-11-04T14:35:42;99704.13;;;12.58;88.57
24486;BME280;13449;49.374;8.584;2022-11-04T14:38:40;99708.13;;;12.55;88.98
24486;BME280;13449;49.374;8.584;2022-11-04T14:43:43;99709.44;;;12.46;89.60
24486;BME280;13449;49.374;8.584;2022-11-04T14:46:18;99715.53;;;12.42;90.46
24486;BME280;13449;49.374;8.584;2022-11-04T14:48:50;99705.69;;;12.34;89.84
24486;BME280;13449;49.374;8.584;2022-11-04T14:51:22;99716.00;;;12.32;91.99
24486;BME280;13449;49.374;8.584;2022-11-04T14:53:54;99724.66;;;12.29;92.46
24486;BME280;13449;49.374;8.584;2022-11-04T14:56:24;99737.03;;;12.32;90.40
24486;BME280;13449;49.374;8.584;2022-11-04T14:58:59;99733.06;;;12.28;89.64
24486;BME280;13449;49.374;8.584;2022-11-04T15:01:31;99733.66;;;12.30;92.53
24486;BME280;13449;49.374;8.584;2022-11-04T15:04:20;99735.59;;;12.29;93.46
24486;BME280;13449;49.374;8.584;2022-11-04T15:07:00;99744.84;;;12.28;95.94
24486;BME280;13449;49.374;8.584;2022-11-04T15:09:48;99742.31;;;12.20;90.83
24486;BME280;13449;49.374;8.584;2022-11-04T15:12:18;99735.19;;;12.19;94.10
24486;BME280;13449;49.374;8.584;2022-11-04T15:15:33;99748.25;;;12.10;90.01
24486;BME280;13449;49.374;8.584;2022-11-04T15:18:05;99743.19;;;12.07;94.07
24486;BME280;13449;49.374;8.584;2022-11-04T15:20:36;99748.69;;;12.01;93.21
24486;BME280;13449;49.374;8.584;2022-11-04T15:23:11;99754.56;;;11.98;93.29
24486;BME280;13449;49.374;8.584;2022-11-04T15:25:46;99750.16;;;11.97;95.03
24486;BME280;13449;49.374;8.584;2022-11-04T15:28:22;99758.16;;;11.92;97.19